sensor_id;sensor_type;location;lat;lon;timestamp;temperature;humidity
14349;DHT22;7258;50.376;8.742;2023-04-22T00:01:12;10.20;99.90
14349;DHT22;7258;50.376;8.742;2023-04-22T00:03:19;10.20;99.90
14349;DHT22;7258;50.376;8.742;2023-04-22T00:05:26;10.20;99.90
14349;DHT22;7258;50.376;8.742;2023-04-22T00:07:31;10.30;99.90
14349;DHT22;7258;50.376;8.742;2023-04-22T00:09:35;10.20;99.90
14349;DHT22;7258;50.376;8.742;2023-04-22T00:11:41;10.30;99.90
14349;DHT22;7258;50.376;8.742;2023-04-22T00:13:47;10.30;99.90
14349;DHT22;7258;50.376;8.742;2023-04-22T00:15:51;10.30;99.90
14349;DHT22;7258;50.376;8.742;2023-04-22T00:17:57;10.30;99.90
14349;DHT22;7258;50.376;8.742;2023-04-22T00:20:01;10.30;99.90
14349;DHT22;7258;50.376;8.742;2023-04-22T00:22:05;10.30;99.90
14349;DHT22;7258;50.376;8.742;2023-04-22T00:24:11;10.30;99.90
14349;DHT22;7258;50.376;8.742;2023-04-22T00:26:23;10.30;99.90
14349;DHT22;7258;50.376;8.742;2023-04-22T00:28:27;10.30;99.90
14349;DHT22;7258;50.376;8.742;2023-04-22T00:30:42;10.40;99.90
14349;DHT22;7258;50.376;8.742;2023-04-22T00:32:48;10.40;99.90
14349;DHT22;7258;50.376;8.742;2023-04-22T00:34:54;10.40;99.90
14349;DHT22;7258;50.376;8.742;2023-04-22T00:37:00;10.50;99.90
14349;DHT22;7258;50.376;8.742;2023-04-22T00:39:06;10.50;99.90
14349;DHT22;7258;50.376;8.742;2023-04-22T00:41:11;10.60;99.90
14349;DHT22;7258;50.376;8.742;2023-04-22T00:43:16;10.60;99.90
14349;DHT22;7258;50.376;8.742;2023-04-22T00:45:25;10.60;99.90
14349;DHT22;7258;50.376;8.742;2023-04-22T00:47:39;10.70;99.90
14349;DHT22;7258;50.376;8.742;2023-04-22T00:49:52;10.70;99.90
14349;DHT22;7258;50.376;8.742;2023-04-22T00:51:58;10.70;99.90
14349;DHT22;7258;50.376;8.742;2023-04-22T00:54:04;10.70;99.90
14349;DHT22;7258;50.376;8.742;2023-04-22T00:56:14;10.70;99.90
14349;DHT22;7258;50.376;8.742;2023-04-22T00:58:30;10.60;99.90
14349;DHT22;7258;50.376;8.742;2023-04-22T01:00:36;10.60;99.90
14349;DHT22;7258;50.376;8.742;2023-04-22T01:02:42;10.60;99.90
14349;DHT22;7258;50.376;8.742;2023-04-22T01:04:53;10.60;99.90
14349;DHT22;7258;50.376;8.742;2023-04-22T01:07:04;10.60;99.90
14349;DHT22;7258;50.376;8.742;2023-04-22T01:09:15;10.60;99.90
14349;DHT22;7258;50.376;8.742;2023-04-22T01:11:26;10.60;99.90
14349;DHT22;7258;50.376;8.742;2023-04-22T01:13:42;10.60;99.90
14349;DHT22;7258;50.376;8.742;2023-04-22T01:15:46;10.50;99.90
14349;DHT22;7258;50.376;8.742;2023-04-22T01:17:59;10.50;99.90
14349;DHT22;7258;50.376;8.742;2023-04-22T01:20:05;10.50;99.90
14349;DHT22;7258;50.376;8.742;2023-04-22T01:22:16;10.50;99.90
14349;DHT22;7258;50.376;8.742;2023-04-22T01:24:25;10.50;99.90
14349;DHT22;7258;50.376;8.742;2023-04-22T01:26:34;10.40;99.90
14349;DHT22;7258;50.376;8.742;2023-04-22T01:28:38;10.40;99.90
14349;DHT22;7258;50.376;8.742;2023-04-22T01:30:44;10.40;99.90
14349;DHT22;7258;50.376;8.742;2023-04-22T01:32:50;10.40;99.90
14349;DHT22;7258;50.376;8.742;2023-04-22T01:34:55;10.40;99.90
14349;DHT22;7258;50.376;8.742;2023-04-22T01:37:03;10.40;99.90
14349;DHT22;7258;50.376;8.742;2023-04-22T01:39:08;10.40;99.90
14349;DHT22;7258;50.376;8.742;2023-04-22T01:41:13;10.40;99.90
14349;DHT22;7258;50.376;8.742;2023-04-22T01:43:22;10.40;99.90
14349;DHT22;7258;50.376;8.742;2023-04-22T01:45:28;10.40;99.90
14349;DHT22;7258;50.376;8.742;2023-04-22T01:47:35;10.40;99.90
14349;DHT22;7258;50.376;8.742;2023-04-22T01:49:47;10.40;99.90
14349;DHT22;7258;50.376;8.742;2023-04-22T01:51:55;10.40;99.90
14349;DHT22;7258;50.376;8.742;2023-04-22T01:54:07;10.30;99.90
14349;DHT22;7258;50.376;8.742;2023-04-22T01:56:31;10.30;99.90
14349;DHT22;7258;50.376;8.742;2023-04-22T01:59:01;10.30;99.90
14349;DHT22;7258;50.376;8.742;2023-04-22T02:01:43;10.30;99.90
14349;DHT22;7258;50.376;8.742;2023-04-22T02:04:12;10.20;99.90
14349;DHT22;7258;50.376;8.742;2023-04-22T02:06:37;10.20;99.90
14349;DHT22;7258;50.376;8.742;2023-04-22T02:09:15;10.10;99.90
14349;DHT22;7258;50.376;8.742;2023-04-22T02:11:35;10.10;99.90
14349;DHT22;7258;50.376;8.742;2023-04-22T02:14:02;10.10;99.90
14349;DHT22;7258;50.376;8.742;2023-04-22T02:16:12;10.10;99.90
14349;DHT22;7258;50.376;8.742;2023-04-22T02:18:20;10.00;99.90
14349;DHT22;7258;50.376;8.742;2023-04-22T02:20:24;10.00;99.90
14349;DHT22;7258;50.376;8.742;2023-04-22T02:22:27;10.00;99.90
14349;DHT22;7258;50.376;8.742;2023-04-22T02:24:38;10.00;99.90
14349;DHT22;7258;50.376;8.742;2023-04-22T02:27:12;10.00;99.90
14349;DHT22;7258;50.376;8.742;2023-04-22T02:29:18;9.90;99.90
14349;DHT22;7258;50.376;8.742;2023-04-22T02:31:22;9.90;99.90
14349;DHT22;7258;50.376;8.742;2023-04-22T02:33:41;9.90;99.90
14349;DHT22;7258;50.376;8.742;2023-04-22T02:35:50;9.80;99.90
14349;DHT22;7258;50.376;8.742;2023-04-22T02:38:07;9.80;99.90
14349;DHT22;7258;50.376;8.742;2023-04-22T02:40:13;9.80;99.90
14349;DHT22;7258;50.376;8.742;2023-04-22T02:42:19;9.80;99.90
14349;DHT22;7258;50.376;8.742;2023-04-22T02:44:29;9.80;99.90
14349;DHT22;7258;50.376;8.742;2023-04-22T02:46:44;9.70;99.90
14349;DHT22;7258;50.376;8.742;2023-04-22T02:48:55;9.70;99.90
14349;DHT22;7258;50.376;8.742;2023-04-22T02:51:05;9.70;99.90
14349;DHT22;7258;50.376;8.742;2023-04-22T02:53:14;9.70;99.90
14349;DHT22;7258;50.376;8.742;2023-04-22T02:55:31;9.70;99.90
14349;DHT22;7258;50.376;8.742;2023-04-22T02:57:45;9.70;99.90
14349;DHT22;7258;50.376;8.742;2023-04-22T02:59:56;9.70;99.90
14349;DHT22;7258;50.376;8.742;2023-04-22T03:02:04;9.70;99.90
14349;DHT22;7258;50.376;8.742;2023-04-22T03:04:16;9.70;99.90
14349;DHT22;7258;50.376;8.742;2023-04-22T03:06:26;9.70;99.90
14349;DHT22;7258;50.376;8.742;2023-04-22T03:08:43;9.70;99.90
14349;DHT22;7258;50.376;8.742;2023-04-22T03:10:51;9.70;99.90
14349;DHT22;7258;50.376;8.742;2023-04-22T03:13:03;9.60;99.90
14349;DHT22;7258;50.376;8.742;2023-04-22T03:15:07;9.60;99.90
14349;DHT22;7258;50.376;8.742;2023-04-22T03:17:14;9.60;99.90
14349;DHT22;7258;50.376;8.742;2023-04-22T03:19:25;9.50;99.90
14349;DHT22;7258;50.376;8.742;2023-04-22T03:21:34;9.50;99.90
14349;DHT22;7258;50.376;8.742;2023-04-22T03:23:46;9.50;99.90
14349;DHT22;7258;50.376;8.742;2023-04-22T03:26:07;9.50;99.90
14349;DHT22;7258;50.376;8.742;2023-04-22T03:28:15;9.40;99.90
14349;DHT22;7258;50.376;8.742;2023-04-22T03:32:48;9.40;99.90
14349;DHT22;7258;50.376;8.742;2023-04-22T03:35:05;9.40;99.90
14349;DHT22;7258;50.376;8.742;2023-04-22T03:37:11;9.30;99.90
14349;DHT22;7258;50.376;8.742;2023-04-22T03:39:22;9.30;99.90
14349;DHT22;7258;50.376;8.742;2023-04-22T03:41:46;9.30;99.90
14349;DHT22;7258;50.376;8.742;2023-04-22T03:43:58;9.20;99.90
14349;DHT22;7258;50.376;8.742;2023-04-22T03:46:06;9.20;99.90
14349;DHT22;7258;50.376;8.742;2023-04-22T03:48:14;9.10;99.90
14349;DHT22;7258;50.376;8.742;2023-04-22T03:50:19;9.10;99.90
14349;DHT22;7258;50.376;8.742;2023-04-22T03:52:33;9.10;99.90
14349;DHT22;7258;50.376;8.742;2023-04-22T03:54:42;9.10;99.90
14349;DHT22;7258;50.376;8.742;2023-04-22T03:56:48;9.10;99.90
14349;DHT22;7258;50.376;8.742;2023-04-22T03:58:58;9.00;99.90
14349;DHT22;7258;50.376;8.742;2023-04-22T04:01:01;9.00;99.90
14349;DHT22;7258;50.376;8.742;2023-04-22T04:03:10;9.00;99.90
14349;DHT22;7258;50.376;8.742;2023-04-22T04:05:15;9.00;99.90
14349;DHT22;7258;50.376;8.742;2023-04-22T04:07:24;8.90;99.90
14349;DHT22;7258;50.376;8.742;2023-04-22T04:09:29;9.00;99.90
14349;DHT22;7258;50.376;8.742;2023-04-22T04:11:37;8.90;99.90
14349;DHT22;7258;50.376;8.742;2023-04-22T04:13:47;8.90;99.90
14349;DHT22;7258;50.376;8.742;2023-04-22T04:15:55;8.90;99.90
14349;DHT22;7258;50.376;8.742;2023-04-22T04:18:02;8.90;99.90
14349;DHT22;7258;50.376;8.742;2023-04-22T04:20:09;8.80;99.90
14349;DHT22;7258;50.376;8.742;2023-04-22T04:22:18;8.80;99.90
14349;DHT22;7258;50.376;8.742;2023-04-22T04:24:24;8.80;99.90
14349;DHT22;7258;50.376;8.742;2023-04-22T04:26:31;8.80;99.90
14349;DHT22;7258;50.376;8.742;2023-04-22T04:28:35;8.70;99.90
14349;DHT22;7258;50.376;8.742;2023-04-22T04:30:48;8.70;99.90
14349;DHT22;7258;50.376;8.742;2023-04-22T04:32:59;8.70;99.90
14349;DHT22;7258;50.376;8.742;2023-04-22T04:35:13;8.70;99.90
14349;DHT22;7258;50.376;8.742;2023-04-22T04:37:19;8.70;99.90
14349;DHT22;7258;50.376;8.742;2023-04-22T04:39:23;8.70;99.90
14349;DHT22;7258;50.376;8.742;2023-04-22T04:41:31;8.70;99.90
14349;DHT22;7258;50.376;8.742;2023-04-22T04:43:40;8.70;99.90
14349;DHT22;7258;50.376;8.742;2023-04-22T04:45:47;8.80;99.90
14349;DHT22;7258;50.376;8.742;2023-04-22T04:47:51;8.70;99.90
14349;DHT22;7258;50.376;8.742;2023-04-22T04:49:59;8.80;99.90
14349;DHT22;7258;50.376;8.742;2023-04-22T04:52:09;8.80;99.90
14349;DHT22;7258;50.376;8.742;2023-04-22T04:54:25;8.80;99.90
14349;DHT22;7258;50.376;8.742;2023-04-22T04:56:29;8.80;99.90
14349;DHT22;7258;50.376;8.742;2023-04-22T04:58:37;8.80;99.90
14349;DHT22;7258;50.376;8.742;2023-04-22T05:00:50;8.80;99.90
14349;DHT22;7258;50.376;8.742;2023-04-22T05:02:59;8.90;99.90
14349;DHT22;7258;50.376;8.742;2023-04-22T05:05:15;8.90;99.90
14349;DHT22;7258;50.376;8.742;2023-04-22T05:07:21;8.90;99.90
14349;DHT22;7258;50.376;8.742;2023-04-22T05:09:28;8.90;99.90
14349;DHT22;7258;50.376;8.742;2023-04-22T05:11:39;8.90;99.90
14349;DHT22;7258;50.376;8.742;2023-04-22T05:13:50;8.90;99.90
14349;DHT22;7258;50.376;8.742;2023-04-22T05:15:53;8.90;99.90
14349;DHT22;7258;50.376;8.742;2023-04-22T05:17:57;8.90;99.90
14349;DHT22;7258;50.376;8.742;2023-04-22T05:20:08;8.90;99.90
14349;DHT22;7258;50.376;8.742;2023-04-22T05:22:18;8.90;99.90
14349;DHT22;7258;50.376;8.742;2023-04-22T05:24:24;8.90;99.90
14349;DHT22;7258;50.376;8.742;2023-04-22T05:26:42;9.00;99.90
14349;DHT22;7258;50.376;8.742;2023-04-22T05:29:33;9.00;99.90
14349;DHT22;7258;50.376;8.742;2023-04-22T05:31:36;9.10;99.90
14349;DHT22;7258;50.376;8.742;2023-04-22T05:33:44;9.10;99.90
14349;DHT22;7258;50.376;8.742;2023-04-22T05:35:50;9.10;99.90
14349;DHT22;7258;50.376;8.742;2023-04-22T05:38:06;9.20;99.90
14349;DHT22;7258;50.376;8.742;2023-04-22T05:40:15;9.20;99.90
14349;DHT22;7258;50.376;8.742;2023-04-22T05:42:26;9.20;99.90
14349;DHT22;7258;50.376;8.742;2023-04-22T05:44:38;9.20;99.90
14349;DHT22;7258;50.376;8.742;2023-04-22T05:47:02;9.30;99.90
14349;DHT22;7258;50.376;8.742;2023-04-22T05:49:12;9.30;99.90
14349;DHT22;7258;50.376;8.742;2023-04-22T05:51:23;9.30;99.90
14349;DHT22;7258;50.376;8.742;2023-04-22T05:53:35;9.30;99.90
14349;DHT22;7258;50.376;8.742;2023-04-22T05:55:44;9.30;99.90
14349;DHT22;7258;50.376;8.742;2023-04-22T05:58:01;9.30;99.90
14349;DHT22;7258;50.376;8.742;2023-04-22T06:00:14;9.30;99.90
14349;DHT22;7258;50.376;8.742;2023-04-22T06:02:31;9.30;99.90
14349;DHT22;7258;50.376;8.742;2023-04-22T06:04:49;9.30;99.90
14349;DHT22;7258;50.376;8.742;2023-04-22T06:07:12;9.30;99.90
14349;DHT22;7258;50.376;8.742;2023-04-22T06:09:26;9.40;99.90
14349;DHT22;7258;50.376;8.742;2023-04-22T06:11:41;9.50;99.90
14349;DHT22;7258;50.376;8.742;2023-04-22T06:13:53;9.60;99.90
14349;DHT22;7258;50.376;8.742;2023-04-22T06:16:03;9.70;99.90
14349;DHT22;7258;50.376;8.742;2023-04-22T06:18:26;9.80;99.90
14349;DHT22;7258;50.376;8.742;2023-04-22T06:20:42;10.00;99.90
14349;DHT22;7258;50.376;8.742;2023-04-22T06:22:57;10.10;99.90
14349;DHT22;7258;50.376;8.742;2023-04-22T06:25:04;10.30;99.90
14349;DHT22;7258;50.376;8.742;2023-04-22T06:27:14;10.50;99.90
14349;DHT22;7258;50.376;8.742;2023-04-22T06:29:21;10.60;99.90
14349;DHT22;7258;50.376;8.742;2023-04-22T06:31:36;10.80;99.90
14349;DHT22;7258;50.376;8.742;2023-04-22T06:33:46;10.90;99.90
14349;DHT22;7258;50.376;8.742;2023-04-22T06:35:52;11.00;99.90
14349;DHT22;7258;50.376;8.742;2023-04-22T06:38:08;11.10;99.90
14349;DHT22;7258;50.376;8.742;2023-04-22T06:40:16;11.30;99.90
14349;DHT22;7258;50.376;8.742;2023-04-22T06:42:25;11.50;99.90
14349;DHT22;7258;50.376;8.742;2023-04-22T06:44:30;11.70;99.90
14349;DHT22;7258;50.376;8.742;2023-04-22T06:46:35;11.80;99.90
14349;DHT22;7258;50.376;8.742;2023-04-22T06:48:42;11.90;99.90
14349;DHT22;7258;50.376;8.742;2023-04-22T06:50:45;12.10;99.90
14349;DHT22;7258;50.376;8.742;2023-04-22T06:52:48;12.20;99.90
14349;DHT22;7258;50.376;8.742;2023-04-22T06:54:51;12.30;99.90
14349;DHT22;7258;50.376;8.742;2023-04-22T06:56:55;12.50;99.90
14349;DHT22;7258;50.376;8.742;2023-04-22T06:58:59;12.70;99.90
14349;DHT22;7258;50.376;8.742;2023-04-22T07:01:02;12.90;99.90
14349;DHT22;7258;50.376;8.742;2023-04-22T07:03:05;13.10;99.90
14349;DHT22;7258;50.376;8.742;2023-04-22T07:05:08;13.20;99.90
14349;DHT22;7258;50.376;8.742;2023-04-22T07:07:11;13.40;99.90
14349;DHT22;7258;50.376;8.742;2023-04-22T07:09:16;13.50;99.90
14349;DHT22;7258;50.376;8.742;2023-04-22T07:11:19;13.60;99.90
14349;DHT22;7258;50.376;8.742;2023-04-22T07:13:23;13.80;99.90
14349;DHT22;7258;50.376;8.742;2023-04-22T07:15:27;14.00;99.90
14349;DHT22;7258;50.376;8.742;2023-04-22T07:17:31;14.20;99.90
14349;DHT22;7258;50.376;8.742;2023-04-22T07:19:34;14.40;99.90
14349;DHT22;7258;50.376;8.742;2023-04-22T07:21:37;14.70;99.90
14349;DHT22;7258;50.376;8.742;2023-04-22T07:23:40;14.80;99.90
14349;DHT22;7258;50.376;8.742;2023-04-22T07:25:44;15.00;99.90
14349;DHT22;7258;50.376;8.742;2023-04-22T07:27:47;15.20;99.90
14349;DHT22;7258;50.376;8.742;2023-04-22T07:29:51;15.20;99.90
14349;DHT22;7258;50.376;8.742;2023-04-22T07:31:54;15.30;99.90
14349;DHT22;7258;50.376;8.742;2023-04-22T07:33:58;15.40;99.90
14349;DHT22;7258;50.376;8.742;2023-04-22T07:36:01;15.40;99.90
14349;DHT22;7258;50.376;8.742;2023-04-22T07:38:04;15.50;99.90
14349;DHT22;7258;50.376;8.742;2023-04-22T07:40:10;15.50;99.90
14349;DHT22;7258;50.376;8.742;2023-04-22T07:42:14;15.60;99.90
14349;DHT22;7258;50.376;8.742;2023-04-22T07:44:18;15.60;99.90
14349;DHT22;7258;50.376;8.742;2023-04-22T07:46:23;15.60;99.90
14349;DHT22;7258;50.376;8.742;2023-04-22T07:48:26;15.60;99.90
14349;DHT22;7258;50.376;8.742;2023-04-22T07:50:30;15.60;99.90
14349;DHT22;7258;50.376;8.742;2023-04-22T07:52:33;15.70;99.90
14349;DHT22;7258;50.376;8.742;2023-04-22T07:54:37;15.80;99.90
14349;DHT22;7258;50.376;8.742;2023-04-22T07:56:40;15.90;99.90
14349;DHT22;7258;50.376;8.742;2023-04-22T07:58:43;16.00;99.90
14349;DHT22;7258;50.376;8.742;2023-04-22T08:00:46;16.00;99.90
14349;DHT22;7258;50.376;8.742;2023-04-22T08:02:50;16.10;99.90
14349;DHT22;7258;50.376;8.742;2023-04-22T08:04:53;16.10;99.90
14349;DHT22;7258;50.376;8.742;2023-04-22T08:06:59;16.10;99.90
14349;DHT22;7258;50.376;8.742;2023-04-22T08:09:18;16.10;99.90
14349;DHT22;7258;50.376;8.742;2023-04-22T08:11:23;16.10;99.90
14349;DHT22;7258;50.376;8.742;2023-04-22T08:13:26;16.20;99.90
14349;DHT22;7258;50.376;8.742;2023-04-22T08:15:29;16.30;99.90
14349;DHT22;7258;50.376;8.742;2023-04-22T08:17:32;16.30;99.90
14349;DHT22;7258;50.376;8.742;2023-04-22T08:19:37;16.40;99.90
14349;DHT22;7258;50.376;8.742;2023-04-22T08:21:40;16.40;99.90
14349;DHT22;7258;50.376;8.742;2023-04-22T08:23:43;16.40;99.90
14349;DHT22;7258;50.376;8.742;2023-04-22T08:25:47;16.50;99.90
14349;DHT22;7258;50.376;8.742;2023-04-22T08:27:52;16.60;99.90
14349;DHT22;7258;50.376;8.742;2023-04-22T08:29:56;16.60;99.90
14349;DHT22;7258;50.376;8.742;2023-04-22T08:32:02;16.70;99.90
14349;DHT22;7258;50.376;8.742;2023-04-22T08:34:05;16.80;99.90
14349;DHT22;7258;50.376;8.742;2023-04-22T08:36:09;16.80;99.90
14349;DHT22;7258;50.376;8.742;2023-04-22T08:38:13;16.80;99.90
14349;DHT22;7258;50.376;8.742;2023-04-22T08:40:16;16.90;99.90
14349;DHT22;7258;50.376;8.742;2023-04-22T08:42:19;17.00;99.90
14349;DHT22;7258;50.376;8.742;2023-04-22T08:44:23;17.10;99.90
14349;DHT22;7258;50.376;8.742;2023-04-22T08:46:27;17.20;99.90
14349;DHT22;7258;50.376;8.742;2023-04-22T08:48:32;17.30;99.90
14349;DHT22;7258;50.376;8.742;2023-04-22T08:50:37;17.40;99.90
14349;DHT22;7258;50.376;8.742;2023-04-22T08:52:42;17.40;99.90
14349;DHT22;7258;50.376;8.742;2023-04-22T08:54:46;17.50;99.90
14349;DHT22;7258;50.376;8.742;2023-04-22T08:56:49;17.60;99.90
14349;DHT22;7258;50.376;8.742;2023-04-22T08:58:53;17.60;99.90
14349;DHT22;7258;50.376;8.742;2023-04-22T09:00:56;17.70;99.90
14349;DHT22;7258;50.376;8.742;2023-04-22T09:03:01;17.70;99.90
14349;DHT22;7258;50.376;8.742;2023-04-22T09:05:05;17.70;99.90
14349;DHT22;7258;50.376;8.742;2023-04-22T09:07:12;17.60;99.90
14349;DHT22;7258;50.376;8.742;2023-04-22T09:09:19;17.60;99.90
14349;DHT22;7258;50.376;8.742;2023-04-22T09:11:22;17.70;99.90
14349;DHT22;7258;50.376;8.742;2023-04-22T09:13:26;17.80;99.90
14349;DHT22;7258;50.376;8.742;2023-04-22T09:15:29;17.90;99.90
14349;DHT22;7258;50.376;8.742;2023-04-22T09:17:35;17.90;99.90
14349;DHT22;7258;50.376;8.742;2023-04-22T09:19:39;18.00;99.90
14349;DHT22;7258;50.376;8.742;2023-04-22T09:21:45;18.20;99.90
14349;DHT22;7258;50.376;8.742;2023-04-22T09:23:52;18.40;99.90
14349;DHT22;7258;50.376;8.742;2023-04-22T09:25:58;18.60;99.90
14349;DHT22;7258;50.376;8.742;2023-04-22T09:28:01;18.70;99.90
14349;DHT22;7258;50.376;8.742;2023-04-22T09:30:07;18.90;99.90
14349;DHT22;7258;50.376;8.742;2023-04-22T09:32:13;19.00;99.90
14349;DHT22;7258;50.376;8.742;2023-04-22T09:34:16;19.10;99.90
14349;DHT22;7258;50.376;8.742;2023-04-22T09:36:21;19.20;99.90
14349;DHT22;7258;50.376;8.742;2023-04-22T09:38:30;19.30;99.90
14349;DHT22;7258;50.376;8.742;2023-04-22T09:40:34;19.30;99.90
14349;DHT22;7258;50.376;8.742;2023-04-22T09:42:48;19.30;99.90
14349;DHT22;7258;50.376;8.742;2023-04-22T09:44:52;19.30;99.90
14349;DHT22;7258;50.376;8.742;2023-04-22T09:46:55;19.30;99.90
14349;DHT22;7258;50.376;8.742;2023-04-22T09:48:59;19.30;99.90
14349;DHT22;7258;50.376;8.742;2023-04-22T09:51:14;19.40;99.90
14349;DHT22;7258;50.376;8.742;2023-04-22T09:53:21;19.40;99.90
14349;DHT22;7258;50.376;8.742;2023-04-22T09:55:26;19.40;99.90
14349;DHT22;7258;50.376;8.742;2023-04-22T09:57:29;19.40;99.90
14349;DHT22;7258;50.376;8.742;2023-04-22T09:59:34;19.50;99.90
14349;DHT22;7258;50.376;8.742;2023-04-22T10:01:38;19.50;99.90
14349;DHT22;7258;50.376;8.742;2023-04-22T10:03:42;19.60;99.90
14349;DHT22;7258;50.376;8.742;2023-04-22T10:05:45;19.70;99.90
14349;DHT22;7258;50.376;8.742;2023-04-22T10:07:49;19.80;99.90
14349;DHT22;7258;50.376;8.742;2023-04-22T10:09:52;20.00;99.90
14349;DHT22;7258;50.376;8.742;2023-04-22T10:11:56;20.20;99.90
14349;DHT22;7258;50.376;8.742;2023-04-22T10:13:59;20.40;99.70
14349;DHT22;7258;50.376;8.742;2023-04-22T10:16:04;20.60;99.90
14349;DHT22;7258;50.376;8.742;2023-04-22T10:18:09;20.70;99.90
14349;DHT22;7258;50.376;8.742;2023-04-22T10:20:16;20.60;99.70
14349;DHT22;7258;50.376;8.742;2023-04-22T10:22:20;20.60;99.60
14349;DHT22;7258;50.376;8.742;2023-04-22T10:24:26;20.60;99.80
14349;DHT22;7258;50.376;8.742;2023-04-22T10:26:40;20.80;99.80
14349;DHT22;7258;50.376;8.742;2023-04-22T10:28:44;21.00;99.90
14349;DHT22;7258;50.376;8.742;2023-04-22T10:30:47;21.00;99.90
14349;DHT22;7258;50.376;8.742;2023-04-22T10:32:52;21.00;99.60
14349;DHT22;7258;50.376;8.742;2023-04-22T10:35:09;21.00;99.60
14349;DHT22;7258;50.376;8.742;2023-04-22T10:37:16;21.20;99.60
14349;DHT22;7258;50.376;8.742;2023-04-22T10:39:20;21.30;99.00
14349;DHT22;7258;50.376;8.742;2023-04-22T10:41:25;21.40;98.70
14349;DHT22;7258;50.376;8.742;2023-04-22T10:43:40;21.40;98.50
14349;DHT22;7258;50.376;8.742;2023-04-22T10:45:43;21.60;98.60
14349;DHT22;7258;50.376;8.742;2023-04-22T10:47:46;21.70;98.40
14349;DHT22;7258;50.376;8.742;2023-04-22T10:49:51;21.70;98.20
14349;DHT22;7258;50.376;8.742;2023-04-22T10:51:56;21.80;98.20
14349;DHT22;7258;50.376;8.742;2023-04-22T10:54:00;21.90;98.20
14349;DHT22;7258;50.376;8.742;2023-04-22T10:56:15;22.00;97.50
14349;DHT22;7258;50.376;8.742;2023-04-22T10:58:21;21.90;97.20
14349;DHT22;7258;50.376;8.742;2023-04-22T11:00:29;22.00;97.70
14349;DHT22;7258;50.376;8.742;2023-04-22T11:02:36;21.90;97.30
14349;DHT22;7258;50.376;8.742;2023-04-22T11:04:43;22.00;97.80
14349;DHT22;7258;50.376;8.742;2023-04-22T11:07:14;22.10;97.20
14349;DHT22;7258;50.376;8.742;2023-04-22T11:09:17;22.30;97.00
14349;DHT22;7258;50.376;8.742;2023-04-22T11:11:22;22.30;96.90
14349;DHT22;7258;50.376;8.742;2023-04-22T11:13:25;22.20;96.90
14349;DHT22;7258;50.376;8.742;2023-04-22T11:15:29;22.30;97.30
14349;DHT22;7258;50.376;8.742;2023-04-22T11:17:33;22.30;96.70
14349;DHT22;7258;50.376;8.742;2023-04-22T11:19:36;22.30;97.10
14349;DHT22;7258;50.376;8.742;2023-04-22T11:21:39;22.30;96.60
14349;DHT22;7258;50.376;8.742;2023-04-22T11:23:50;22.20;96.60
14349;DHT22;7258;50.376;8.742;2023-04-22T11:25:54;22.40;97.00
14349;DHT22;7258;50.376;8.742;2023-04-22T11:27:58;22.40;96.90
14349;DHT22;7258;50.376;8.742;2023-04-22T11:30:01;22.50;96.40
14349;DHT22;7258;50.376;8.742;2023-04-22T11:32:04;22.50;96.00
14349;DHT22;7258;50.376;8.742;2023-04-22T11:34:08;22.60;96.20
14349;DHT22;7258;50.376;8.742;2023-04-22T11:36:11;22.60;95.90
14349;DHT22;7258;50.376;8.742;2023-04-22T11:38:14;22.70;96.30
14349;DHT22;7258;50.376;8.742;2023-04-22T11:40:20;22.70;96.40
14349;DHT22;7258;50.376;8.742;2023-04-22T11:42:34;22.60;95.80
14349;DHT22;7258;50.376;8.742;2023-04-22T11:44:37;22.50;95.40
14349;DHT22;7258;50.376;8.742;2023-04-22T11:46:43;22.40;95.70
14349;DHT22;7258;50.376;8.742;2023-04-22T11:48:45;22.50;96.30
14349;DHT22;7258;50.376;8.742;2023-04-22T11:50:49;22.50;96.20
14349;DHT22;7258;50.376;8.742;2023-04-22T11:52:53;22.50;96.10
14349;DHT22;7258;50.376;8.742;2023-04-22T11:54:59;22.50;95.80
14349;DHT22;7258;50.376;8.742;2023-04-22T11:57:05;22.40;94.90
14349;DHT22;7258;50.376;8.742;2023-04-22T11:59:09;22.10;94.80
14349;DHT22;7258;50.376;8.742;2023-04-22T12:01:13;22.00;95.50
14349;DHT22;7258;50.376;8.742;2023-04-22T12:03:19;21.90;95.20
14349;DHT22;7258;50.376;8.742;2023-04-22T12:05:37;21.80;95.70
14349;DHT22;7258;50.376;8.742;2023-04-22T12:07:42;21.90;95.90
14349;DHT22;7258;50.376;8.742;2023-04-22T12:09:44;22.00;96.00
14349;DHT22;7258;50.376;8.742;2023-04-22T12:11:50;22.10;96.20
14349;DHT22;7258;50.376;8.742;2023-04-22T12:13:54;22.20;95.60
14349;DHT22;7258;50.376;8.742;2023-04-22T12:15:58;22.30;95.50
14349;DHT22;7258;50.376;8.742;2023-04-22T12:18:01;22.40;95.50
14349;DHT22;7258;50.376;8.742;2023-04-22T12:20:12;22.40;95.90
14349;DHT22;7258;50.376;8.742;2023-04-22T12:22:23;22.60;96.90
14349;DHT22;7258;50.376;8.742;2023-04-22T12:24:27;22.60;95.80
14349;DHT22;7258;50.376;8.742;2023-04-22T12:26:30;22.70;95.20
14349;DHT22;7258;50.376;8.742;2023-04-22T12:28:35;22.60;94.50
14349;DHT22;7258;50.376;8.742;2023-04-22T12:30:40;22.60;95.10
14349;DHT22;7258;50.376;8.742;2023-04-22T12:32:43;22.80;95.30
14349;DHT22;7258;50.376;8.742;2023-04-22T12:34:46;22.90;95.50
14349;DHT22;7258;50.376;8.742;2023-04-22T12:36:49;23.00;95.30
14349;DHT22;7258;50.376;8.742;2023-04-22T12:38:52;22.90;94.20
14349;DHT22;7258;50.376;8.742;2023-04-22T12:40:57;22.80;94.10
14349;DHT22;7258;50.376;8.742;2023-04-22T12:43:00;22.90;94.30
14349;DHT22;7258;50.376;8.742;2023-04-22T12:45:08;22.80;94.30
14349;DHT22;7258;50.376;8.742;2023-04-22T12:47:13;22.80;94.10
14349;DHT22;7258;50.376;8.742;2023-04-22T12:49:18;22.90;94.90
14349;DHT22;7258;50.376;8.742;2023-04-22T12:51:22;23.00;94.30
14349;DHT22;7258;50.376;8.742;2023-04-22T12:53:25;23.10;93.90
14349;DHT22;7258;50.376;8.742;2023-04-22T12:55:29;23.10;93.30
14349;DHT22;7258;50.376;8.742;2023-04-22T12:57:32;23.20;93.30
14349;DHT22;7258;50.376;8.742;2023-04-22T12:59:35;23.20;92.80
14349;DHT22;7258;50.376;8.742;2023-04-22T13:01:39;23.30;93.30
14349;DHT22;7258;50.376;8.742;2023-04-22T13:03:43;23.30;93.10
14349;DHT22;7258;50.376;8.742;2023-04-22T13:05:46;23.40;92.80
14349;DHT22;7258;50.376;8.742;2023-04-22T13:07:50;23.50;92.90
14349;DHT22;7258;50.376;8.742;2023-04-22T13:10:09;23.60;92.80
14349;DHT22;7258;50.376;8.742;2023-04-22T13:12:12;23.60;90.20
14349;DHT22;7258;50.376;8.742;2023-04-22T13:14:15;23.70;89.40
14349;DHT22;7258;50.376;8.742;2023-04-22T13:16:19;23.70;87.90
14349;DHT22;7258;50.376;8.742;2023-04-22T13:18:22;23.80;87.20
14349;DHT22;7258;50.376;8.742;2023-04-22T13:20:28;23.80;87.10
14349;DHT22;7258;50.376;8.742;2023-04-22T13:22:34;23.80;86.60
14349;DHT22;7258;50.376;8.742;2023-04-22T13:24:37;23.80;86.60
14349;DHT22;7258;50.376;8.742;2023-04-22T13:26:40;23.70;87.60
14349;DHT22;7258;50.376;8.742;2023-04-22T13:28:44;23.50;87.20
14349;DHT22;7258;50.376;8.742;2023-04-22T13:30:50;23.40;88.70
14349;DHT22;7258;50.376;8.742;2023-04-22T13:32:53;23.30;87.20
14349;DHT22;7258;50.376;8.742;2023-04-22T13:34:56;23.20;88.10
14349;DHT22;7258;50.376;8.742;2023-04-22T13:37:02;23.00;87.90
14349;DHT22;7258;50.376;8.742;2023-04-22T13:39:05;22.90;88.60
14349;DHT22;7258;50.376;8.742;2023-04-22T13:41:09;22.80;88.90
14349;DHT22;7258;50.376;8.742;2023-04-22T13:43:12;22.70;88.90
14349;DHT22;7258;50.376;8.742;2023-04-22T13:45:15;22.50;89.30